sensor_id;sensor_type;location;lat;lon;timestamp;pressure;altitude;pressure_sealevel;temperature;humidity
63405;BME280;49541;57.840;12.306;2022-08-16T00:03:48;99963.25;;;21.01;79.07
63405;BME280;49541;57.840;12.306;2022-08-16T00:08:48;99955.50;;;20.66;81.69
63405;BME280;49541;57.840;12.306;2022-08-16T00:13:49;99955.84;;;21.21;78.18
63405;BME280;49541;57.840;12.306;2022-08-16T00:18:49;99961.78;;;21.05;77.50
63405;BME280;49541;57.840;12.306;2022-08-16T00:23:50;99961.53;;;20.68;74.94
63405;BME280;49541;57.840;12.306;2022-08-16T00:28:50;99959.75;;;20.94;75.18
63405;BME280;49541;57.840;12.306;2022-08-16T00:33:50;99956.28;;;20.86;75.82
63405;BME280;49541;57.840;12.306;2022-08-16T00:38:50;99955.16;;;20.94;76.41
63405;BME280;49541;57.840;12.306;2022-08-16T00:43:51;99953.53;;;20.93;76.24
63405;BME280;49541;57.840;12.306;2022-08-16T00:48:51;99958.09;;;20.93;75.91
63405;BME280;49541;57.840;12.306;2022-08-16T00:53:52;99957.84;;;21.01;75.69
63405;BME280;49541;57.840;12.306;2022-08-16T00:58:52;99955.38;;;20.93;74.94
63405;BME280;49541;57.840;12.306;2022-08-16T01:03:53;99954.41;;;20.80;75.27
63405;BME280;49541;57.840;12.306;2022-08-16T01:08:54;99955.66;;;20.84;76.00
63405;BME280;49541;57.840;12.306;2022-08-16T01:13:56;99951.78;;;20.60;76.54
63405;BME280;49541;57.840;12.306;2022-08-16T01:29:04;99939.47;;;20.71;75.93
63405;BME280;49541;57.840;12.306;2022-08-16T01:34:05;99940.78;;;20.49;76.48
63405;BME280;49541;57.840;12.306;2022-08-16T01:39:10;99949.88;;;20.74;76.25
63405;BME280;49541;57.840;12.306;2022-08-16T01:44:10;99934.44;;;20.81;76.53
63405;BME280;49541;57.840;12.306;2022-08-16T01:54:11;99929.31;;;20.60;73.92
63405;BME280;49541;57.840;12.306;2022-08-16T01:59:12;99932.44;;;20.57;73.84
63405;BME280;49541;57.840;12.306;2022-08-16T02:04:12;99929.31;;;20.53;74.90
63405;BME280;49541;57.840;12.306;2022-08-16T02:09:13;99929.75;;;20.57;76.88
63405;BME280;49541;57.840;12.306;2022-08-16T02:14:14;99934.75;;;20.60;77.85
63405;BME280;49541;57.840;12.306;2022-08-16T02:19:15;99920.16;;;20.68;77.69
63405;BME280;49541;57.840;12.306;2022-08-16T02:24:17;99913.31;;;20.52;77.15
63405;BME280;49541;57.840;12.306;2022-08-16T02:29:18;99914.78;;;20.48;77.93
63405;BME280;49541;57.840;12.306;2022-08-16T02:34:19;99918.38;;;20.41;80.86
63405;BME280;49541;57.840;12.306;2022-08-16T02:39:19;99920.78;;;20.56;80.01
63405;BME280;49541;57.840;12.306;2022-08-16T02:44:20;99917.50;;;20.41;78.84
63405;BME280;49541;57.840;12.306;2022-08-16T02:49:20;99907.63;;;20.15;81.72
63405;BME280;49541;57.840;12.306;2022-08-16T02:54:21;99902.75;;;20.37;81.78
63405;BME280;49541;57.840;12.306;2022-08-16T02:59:21;99889.28;;;20.82;79.65
63405;BME280;49541;57.840;12.306;2022-08-16T03:04:21;99875.47;;;20.58;79.46
63405;BME280;49541;57.840;12.306;2022-08-16T03:09:22;99890.69;;;20.46;81.65
63405;BME280;49541;57.840;12.306;2022-08-16T03:14:23;99889.19;;;20.57;81.13
63405;BME280;49541;57.840;12.306;2022-08-16T03:19:23;99885.22;;;20.66;80.37
63405;BME280;49541;57.840;12.306;2022-08-16T03:24:24;99891.97;;;20.82;78.64
63405;BME280;49541;57.840;12.306;2022-08-16T03:29:26;99887.47;;;20.76;78.95
63405;BME280;49541;57.840;12.306;2022-08-16T03:34:26;99890.56;;;20.73;78.66
63405;BME280;49541;57.840;12.306;2022-08-16T03:39:27;99872.00;;;21.15;77.34
63405;BME280;49541;57.840;12.306;2022-08-16T03:44:27;99884.50;;;21.41;77.29
63405;BME280;49541;57.840;12.306;2022-08-16T03:49:27;99883.00;;;20.88;78.60
63405;BME280;49541;57.840;12.306;2022-08-16T03:54:28;99881.09;;;20.50;78.24
63405;BME280;49541;57.840;12.306;2022-08-16T03:59:29;99872.13;;;20.56;78.49
63405;BME280;49541;57.840;12.306;2022-08-16T04:04:30;99875.72;;;20.43;78.47
63405;BME280;49541;57.840;12.306;2022-08-16T04:09:31;99874.78;;;20.18;78.21
63405;BME280;49541;57.840;12.306;2022-08-16T04:14:31;99866.88;;;20.23;79.62
63405;BME280;49541;57.840;12.306;2022-08-16T04:19:31;99851.84;;;20.34;82.86
63405;BME280;49541;57.840;12.306;2022-08-16T04:24:33;99870.50;;;20.49;82.29
63405;BME280;49541;57.840;12.306;2022-08-16T04:29:34;99874.16;;;20.74;84.97
63405;BME280;49541;57.840;12.306;2022-08-16T04:34:35;99879.63;;;20.93;84.38
63405;BME280;49541;57.840;12.306;2022-08-16T04:39:36;99881.91;;;20.96;81.96
63405;BME280;49541;57.840;12.306;2022-08-16T04:44:36;99877.03;;;20.79;82.58
63405;BME280;49541;57.840;12.306;2022-08-16T04:49:37;99872.56;;;21.23;83.63
63405;BME280;49541;57.840;12.306;2022-08-16T04:54:37;99876.16;;;21.49;82.18
63405;BME280;49541;57.840;12.306;2022-08-16T04:59:39;99876.25;;;21.29;83.40
63405;BME280;49541;57.840;12.306;2022-08-16T05:04:39;99872.00;;;21.40;83.56
63405;BME280;49541;57.840;12.306;2022-08-16T05:09:39;99870.53;;;21.44;83.72
63405;BME280;49541;57.840;12.306;2022-08-16T05:14:39;99864.66;;;21.72;82.80
63405;BME280;49541;57.840;12.306;2022-08-16T05:19:43;99870.34;;;22.07;80.53
63405;BME280;49541;57.840;12.306;2022-08-16T05:24:44;99877.25;;;21.85;80.88
63405;BME280;49541;57.840;12.306;2022-08-16T05:29:44;99874.09;;;21.88;80.37
63405;BME280;49541;57.840;12.306;2022-08-16T05:34:44;99875.41;;;21.79;80.69
63405;BME280;49541;57.840;12.306;2022-08-16T05:39:45;99869.66;;;21.75;80.66
63405;BME280;49541;57.840;12.306;2022-08-16T05:44:45;99864.59;;;21.79;80.47
63405;BME280;49541;57.840;12.306;2022-08-16T05:49:45;99865.97;;;21.88;80.47
63405;BME280;49541;57.840;12.306;2022-08-16T05:54:45;99877.91;;;21.80;80.04
63405;BME280;49541;57.840;12.306;2022-08-16T05:59:46;99876.19;;;21.86;80.39
63405;BME280;49541;57.840;12.306;2022-08-16T06:04:46;99871.16;;;21.89;79.82
63405;BME280;49541;57.840;12.306;2022-08-16T06:09:46;99876.06;;;21.99;79.60
63405;BME280;49541;57.840;12.306;2022-08-16T06:14:47;99860.25;;;22.15;77.58
63405;BME280;49541;57.840;12.306;2022-08-16T06:19:47;99860.56;;;22.25;78.72
63405;BME280;49541;57.840;12.306;2022-08-16T06:24:47;99858.28;;;22.40;78.29
63405;BME280;49541;57.840;12.306;2022-08-16T06:29:49;99860.81;;;22.84;77.70
63405;BME280;49541;57.840;12.306;2022-08-16T06:34:50;99847.63;;;22.87;77.13
63405;BME280;49541;57.840;12.306;2022-08-16T06:39:50;99853.63;;;23.20;75.98
63405;BME280;49541;57.840;12.306;2022-08-16T06:44:50;99850.44;;;23.11;75.83
63405;BME280;49541;57.840;12.306;2022-08-16T06:49:51;99853.03;;;23.06;75.10
63405;BME280;49541;57.840;12.306;2022-08-16T06:54:51;99857.28;;;23.14;74.61
63405;BME280;49541;57.840;12.306;2022-08-16T06:59:51;99858.38;;;23.48;74.34
63405;BME280;49541;57.840;12.306;2022-08-16T07:04:51;99853.06;;;23.53;72.84
63405;BME280;49541;57.840;12.306;2022-08-16T07:09:52;99854.81;;;23.36;74.12
63405;BME280;49541;57.840;12.306;2022-08-16T07:14:52;99850.50;;;23.82;72.30
63405;BME280;49541;57.840;12.306;2022-08-16T07:19:53;99847.19;;;23.80;73.62
63405;BME280;49541;57.840;12.306;2022-08-16T07:24:53;99835.47;;;24.03;73.44
63405;BME280;49541;57.840;12.306;2022-08-16T07:29:53;99835.03;;;24.23;72.38
63405;BME280;49541;57.840;12.306;2022-08-16T07:34:54;99843.13;;;24.46;71.84
63405;BME280;49541;57.840;12.306;2022-08-16T07:39:54;99828.06;;;24.67;70.47
63405;BME280;49541;57.840;12.306;2022-08-16T07:44:54;99834.78;;;24.65;69.23
63405;BME280;49541;57.840;12.306;2022-08-16T07:49:55;99837.91;;;24.45;71.79
63405;BME280;49541;57.840;12.306;2022-08-16T07:54:56;99835.72;;;24.30;70.85
63405;BME280;49541;57.840;12.306;2022-08-16T07:59:56;99839.03;;;24.32;72.24
63405;BME280;49541;57.840;12.306;2022-08-16T08:04:56;99846.66;;;25.55;68.81
63405;BME280;49541;57.840;12.306;2022-08-16T08:09:56;99832.00;;;25.22;67.88
63405;BME280;49541;57.840;12.306;2022-08-16T08:14:57;99839.03;;;25.74;68.15
63405;BME280;49541;57.840;12.306;2022-08-16T08:19:57;99842.00;;;25.72;67.98
63405;BME280;49541;57.840;12.306;2022-08-16T08:24:58;99839.84;;;25.74;65.99
63405;BME280;49541;57.840;12.306;2022-08-16T08:29:58;99842.34;;;25.76;66.95
63405;BME280;49541;57.840;12.306;2022-08-16T08:34:58;99837.06;;;25.69;67.07
63405;BME280;49541;57.840;12.306;2022-08-16T08:40:02;99831.09;;;25.89;67.55
63405;BME280;49541;57.840;12.306;2022-08-16T08:45:03;99827.53;;;26.55;64.08
63405;BME280;49541;57.840;12.306;2022-08-16T08:50:04;99826.03;;;26.96;62.61
63405;BME280;49541;57.840;12.306;2022-08-16T08:55:06;99835.88;;;27.67;60.78
63405;BME280;49541;57.840;12.306;2022-08-16T09:00:08;99833.44;;;27.33;61.54
63405;BME280;49541;57.840;12.306;2022-08-16T09:05:08;99832.56;;;27.60;60.41
63405;BME280;49541;57.840;12.306;2022-08-16T09:10:09;99847.75;;;27.46;61.88
63405;BME280;49541;57.840;12.306;2022-08-16T09:15:10;99840.94;;;27.86;60.59
63405;BME280;49541;57.840;12.306;2022-08-16T09:20:11;99840.03;;;27.75;59.80
63405;BME280;49541;57.840;12.306;2022-08-16T09:25:13;99847.34;;;28.12;61.18
63405;BME280;49541;57.840;12.306;2022-08-16T09:30:13;99847.81;;;28.67;58.99
63405;BME280;49541;57.840;12.306;2022-08-16T09:35:13;99843.22;;;29.34;57.68
63405;BME280;49541;57.840;12.306;2022-08-16T09:40:13;99843.13;;;29.95;54.91
63405;BME280;49541;57.840;12.306;2022-08-16T09:45:14;99841.50;;;29.79;53.62
63405;BME280;49541;57.840;12.306;2022-08-16T09:50:14;99839.00;;;29.88;53.94
63405;BME280;49541;57.840;12.306;2022-08-16T09:55:15;99837.28;;;30.07;52.81
63405;BME280;49541;57.840;12.306;2022-08-16T10:00:15;99830.81;;;29.83;53.59
63405;BME280;49541;57.840;12.306;2022-08-16T10:05:15;99837.25;;;30.23;51.96
63405;BME280;49541;57.840;12.306;2022-08-16T10:10:20;99839.16;;;30.27;53.99
63405;BME280;49541;57.840;12.306;2022-08-16T10:15:20;99836.41;;;30.77;48.90
63405;BME280;49541;57.840;12.306;2022-08-16T10:20:20;99835.97;;;30.59;49.67
63405;BME280;49541;57.840;12.306;2022-08-16T10:25:23;99830.84;;;30.92;49.60
63405;BME280;49541;57.840;12.306;2022-08-16T10:30:23;99843.09;;;30.60;50.07
63405;BME280;49541;57.840;12.306;2022-08-16T10:35:23;99819.31;;;29.70;53.86
63405;BME280;49541;57.840;12.306;2022-08-16T10:40:24;99817.59;;;30.05;52.90
63405;BME280;49541;57.840;12.306;2022-08-16T10:45:24;99823.22;;;30.79;49.43
63405;BME280;49541;57.840;12.306;2022-08-16T10:50:25;99818.63;;;30.09;51.99
63405;BME280;49541;57.840;12.306;2022-08-16T10:55:25;99813.03;;;29.54;53.53
63405;BME280;49541;57.840;12.306;2022-08-16T11:00:25;99805.31;;;30.47;51.92
63405;BME280;49541;57.840;12.306;2022-08-16T11:05:26;99777.44;;;28.93;54.35
63405;BME280;49541;57.840;12.306;2022-08-16T11:10:28;99771.41;;;29.42;52.81
63405;BME280;49541;57.840;12.306;2022-08-16T11:15:29;99766.78;;;29.22;54.85
63405;BME280;49541;57.840;12.306;2022-08-16T11:20:29;99764.31;;;28.90;53.60
63405;BME280;49541;57.840;12.306;2022-08-16T11:25:30;99754.25;;;27.86;57.42
63405;BME280;49541;57.840;12.306;2022-08-16T11:30:31;99761.31;;;27.77;60.73
63405;BME280;49541;57.840;12.306;2022-08-16T11:35:32;99764.22;;;28.23;60.89
63405;BME280;49541;57.840;12.306;2022-08-16T11:40:34;99763.69;;;27.68;64.38
63405;BME280;49541;57.840;12.306;2022-08-16T11:45:36;99775.25;;;27.81;66.28
63405;BME280;49541;57.840;12.306;2022-08-16T11:50:37;99781.41;;;28.13;65.34
63405;BME280;49541;57.840;12.306;2022-08-16T11:55:37;99770.31;;;28.71;63.52
63405;BME280;49541;57.840;12.306;2022-08-16T12:00:41;99770.06;;;29.34;63.59
63405;BME280;49541;57.840;12.306;2022-08-16T12:05:43;99757.63;;;30.28;60.67
63405;BME280;49541;57.840;12.306;2022-08-16T12:10:44;99752.78;;;30.14;59.24
63405;BME280;49541;57.840;12.306;2022-08-16T12:15:45;99733.97;;;29.87;60.07
63405;BME280;49541;57.840;12.306;2022-08-16T12:20:45;99730.97;;;29.89;60.60
63405;BME280;49541;57.840;12.306;2022-08-16T12:25:45;99745.31;;;30.65;58.64
63405;BME280;49541;57.840;12.306;2022-08-16T12:30:46;99759.81;;;29.76;60.52
63405;BME280;49541;57.840;12.306;2022-08-16T12:35:47;99777.16;;;29.35;60.35
63405;BME280;49541;57.840;12.306;2022-08-16T12:40:48;99773.81;;;28.31;62.50
63405;BME280;49541;57.840;12.306;2022-08-16T12:45:50;99760.72;;;28.58;60.09
63405;BME280;49541;57.840;12.306;2022-08-16T12:50:51;99769.50;;;29.37;57.07
63405;BME280;49541;57.840;12.306;2022-08-16T12:55:51;99769.50;;;29.02;55.61
63405;BME280;49541;57.840;12.306;2022-08-16T13:00:52;99758.75;;;28.18;59.32
63405;BME280;49541;57.840;12.306;2022-08-16T13:05:52;99769.47;;;27.24;59.69
63405;BME280;49541;57.840;12.306;2022-08-16T13:10:52;99776.63;;;27.35;59.85
63405;BME280;49541;57.840;12.306;2022-08-16T13:15:54;99795.53;;;27.42;59.89
63405;BME280;49541;57.840;12.306;2022-08-16T13:20:56;99812.63;;;27.22;60.12
63405;BME280;49541;57.840;12.306;2022-08-16T13:25:57;99801.56;;;27.44;59.16
63405;BME280;49541;57.840;12.306;2022-08-16T13:30:57;99799.50;;;27.67;58.64
63405;BME280;49541;57.840;12.306;2022-08-16T13:35:58;99780.84;;;28.01;57.85
63405;BME280;49541;57.840;12.306;2022-08-16T13:40:59;99784.22;;;28.39;57.10
63405;BME280;49541;57.840;12.306;2022-08-16T13:46:01;99793.34;;;28.91;55.70
63405;BME280;49541;57.840;12.306;2022-08-16T13:51:02;99794.56;;;29.96;53.24
63405;BME280;49541;57.840;12.306;2022-08-16T13:56:02;99791.84;;;30.90;49.09
63405;BME280;49541;57.840;12.306;2022-08-16T14:01:03;99801.13;;;31.82;48.29
63405;BME280;49541;57.840;12.306;2022-08-16T14:06:03;99799.69;;;32.71;45.99
63405;BME280;49541;57.840;12.306;2022-08-16T14:11:03;99802.72;;;33.95;41.56
63405;BME280;49541;57.840;12.306;2022-08-16T14:16:04;99798.03;;;32.32;44.42
63405;BME280;49541;57.840;12.306;2022-08-16T14:21:05;99798.72;;;31.22;47.18
63405;BME280;49541;57.840;12.306;2022-08-16T14:26:05;99801.69;;;30.96;47.92
63405;BME280;49541;57.840;12.306;2022-08-16T14:31:06;99803.06;;;29.99;51.30
63405;BME280;49541;57.840;12.306;2022-08-16T14:36:08;99816.94;;;30.29;50.16
63405;BME280;49541;57.840;12.306;2022-08-16T14:41:08;99815.66;;;30.06;51.86
63405;BME280;49541;57.840;12.306;2022-08-16T14:46:08;99814.03;;;30.59;49.29
63405;BME280;49541;57.840;12.306;2022-08-16T14:51:09;99814.72;;;31.15;48.75
63405;BME280;49541;57.840;12.306;2022-08-16T14:56:09;99804.16;;;31.80;47.30
63405;BME280;49541;57.840;12.306;2022-08-16T15:01:09;99805.34;;;31.74;47.48
63405;BME280;49541;57.840;12.306;2022-08-16T15:06:09;99794.75;;;30.65;50.02
63405;BME280;49541;57.840;12.306;2022-08-16T15:11:10;99802.09;;;31.14;48.42
63405;BME280;49541;57.840;12.306;2022-08-16T15:16:10;99801.94;;;31.58;48.04
63405;BME280;49541;57.840;12.306;2022-08-16T15:21:10;99817.69;;;31.18;48.21
63405;BME280;49541;57.840;12.306;2022-08-16T15:26:11;99808.41;;;28.88;52.83
63405;BME280;49541;57.840;12.306;2022-08-16T15:31:11;99807.50;;;27.78;56.90
63405;BME280;49541;57.840;12.306;2022-08-16T15:36:14;99812.38;;;27.66;57.65
63405;BME280;49541;57.840;12.306;2022-08-16T15:46:32;99805.94;;;27.88;56.55
63405;BME280;49541;57.840;12.306;2022-08-16T15:51:33;99800.59;;;27.66;56.95
63405;BME280;49541;57.840;12.306;2022-08-16T15:56:33;99789.63;;;27.55;56.99
63405;BME280;49541;57.840;12.306;2022-08-16T16:01:34;99798.69;;;26.91;59.71
63405;BME280;49541;57.840;12.306;2022-08-16T16:06:35;99799.22;;;27.68;57.04
63405;BME280;49541;57.840;12.306;2022-08-16T16:11:36;99804.84;;;26.76;57.78
63405;BME280;49541;57.840;12.306;2022-08-16T16:16:37;99792.94;;;26.61;59.47
63405;BME280;49541;57.840;12.306;2022-08-16T16:21:37;99795.03;;;27.50;58.08
63405;BME280;49541;57.840;12.306;2022-08-16T16:26:37;99795.19;;;27.33;58.77
63405;BME280;49541;57.840;12.306;2022-08-16T16:31:39;99807.72;;;27.67;56.76
63405;BME280;49541;57.840;12.306;2022-08-16T16:36:39;99804.56;;;27.43;57.46
63405;BME280;49541;57.840;12.306;2022-08-16T16:41:40;99822.44;;;27.23;58.35
63405;BME280;49541;57.840;12.306;2022-08-16T16:46:40;99828.13;;;26.57;59.73
63405;BME280;49541;57.840;12.306;2022-08-16T16:51:42;99828.19;;;26.18;62.04
63405;BME280;49541;57.840;12.306;2022-08-16T16:56:42;99837.63;;;26.54;61.16
63405;BME280;49541;57.840;12.306;2022-08-16T17:01:46;99849.66;;;26.59;60.79
63405;BME280;49541;57.840;12.306;2022-08-16T17:06:49;99850.00;;;26.40;61.80
63405;BME280;49541;57.840;12.306;2022-08-16T17:11:49;99851.06;;;26.39;61.71
63405;BME280;49541;57.840;12.306;2022-08-16T17:16:49;99857.16;;;26.46;61.34
63405;BME280;49541;57.840;12.306;2022-08-16T17:21:50;99868.47;;;26.33;62.05
63405;BME280;49541;57.840;12.306;2022-08-16T17:26:50;99860.16;;;25.84;63.85
63405;BME280;49541;57.840;12.306;2022-08-16T17:31:50;99849.91;;;25.52;64.33
63405;BME280;49541;57.840;12.306;2022-08-16T17:36:51;99868.59;;;24.98;65.92
63405;BME280;49541;57.840;12.306;2022-08-16T17:41:51;99859.03;;;24.66;67.89
63405;BME280;49541;57.840;12.306;2022-08-16T17:46:51;99859.09;;;24.55;69.07
63405;BME280;49541;57.840;12.306;2022-08-16T17:51:51;99855.56;;;24.42;70.78
63405;BME280;49541;57.840;12.306;2022-08-16T17:56:51;99861.66;;;24.21;72.27
63405;BME280;49541;57.840;12.306;2022-08-16T18:01:53;99879.09;;;24.77;69.97
63405;BME280;49541;57.840;12.306;2022-08-16T18:06:53;99878.63;;;24.80;69.84
63405;BME280;49541;57.840;12.306;2022-08-16T18:11:54;99880.25;;;24.81;69.91
63405;BME280;49541;57.840;12.306;2022-08-16T18:16:54;99882.59;;;24.89;69.95
63405;BME280;49541;57.840;12.306;2022-08-16T18:21:55;99878.06;;;24.95;69.89
63405;BME280;49541;57.840;12.306;2022-08-16T18:27:14;99881.09;;;24.82;70.19
63405;BME280;49541;57.840;12.306;2022-08-16T18:32:14;99883.63;;;25.17;69.09
63405;BME280;49541;57.840;12.306;2022-08-16T18:37:15;99891.00;;;25.33;68.44
63405;BME280;49541;57.840;12.306;2022-08-16T18:42:15;99887.47;;;25.33;68.49
63405;BME280;49541;57.840;12.306;2022-08-16T18:47:15;99896.09;;;25.81;66.42
63405;BME280;49541;57.840;12.306;2022-08-16T18:52:15;99899.34;;;25.27;68.33
63405;BME280;49541;57.840;12.306;2022-08-16T18:57:16;99899.34;;;25.27;68.51
63405;BME280;49541;57.840;12.306;2022-08-16T19:02:23;99908.25;;;25.22;68.32
63405;BME280;49541;57.840;12.306;2022-08-16T19:07:24;99918.81;;;25.52;68.07
63405;BME280;49541;57.840;12.306;2022-08-16T19:12:24;99932.69;;;25.05;69.69
63405;BME280;49541;57.840;12.306;2022-08-16T19:17:24;99943.19;;;25.25;69.61
63405;BME280;49541;57.840;12.306;2022-08-16T19:22:26;99953.50;;;24.83;71.27
63405;BME280;49541;57.840;12.306;2022-08-16T19:27:26;99953.81;;;24.58;73.13
63405;BME280;49541;57.840;12.306;2022-08-16T19:32:27;99961.41;;;24.32;74.02
63405;BME280;49541;57.840;12.306;2022-08-16T19:37:27;99970.16;;;24.34;74.12
63405;BME280;49541;57.840;12.306;2022-08-16T19:42:28;99970.53;;;24.02;75.59
63405;BME280;49541;57.840;12.306;2022-08-16T19:47:28;99970.81;;;23.59;77.39
63405;BME280;49541;57.840;12.306;2022-08-16T19:52:29;99964.19;;;23.43;78.34
63405;BME280;49541;57.840;12.306;2022-08-16T19:57:30;99971.03;;;23.57;77.86
63405;BME280;49541;57.840;12.306;2022-08-16T20:02:30;99978.44;;;23.80;76.71
63405;BME280;49541;57.840;12.306;2022-08-16T20:07:32;99983.28;;;23.78;75.90
63405;BME280;49541;57.840;12.306;2022-08-16T20:12:32;99987.75;;;23.96;75.35
63405;BME280;49541;57.840;12.306;2022-08-16T20:17:32;99989.66;;;24.31;73.85
63405;BME280;49541;57.840;12.306;2022-08-16T20:22:33;99988.47;;;24.39;73.51
63405;BME280;49541;57.840;12.306;2022-08-16T20:27:33;99997.00;;;24.19;74.33
63405;BME280;49541;57.840;12.306;2022-08-16T20:32:34;100013.44;;;24.12;74.33
63405;BME280;49541;57.840;12.306;2022-08-16T20:37:34;100016.50;;;23.92;74.28
63405;BME280;49541;57.840;12.306;2022-08-16T20:42:36;100018.19;;;23.75;75.62
63405;BME280;49541;57.840;12.306;2022-08-16T20:47:36;100028.59;;;23.36;77.28
63405;BME280;49541;57.840;12.306;2022-08-16T20:52:37;100029.97;;;23.15;78.21
63405;BME280;49541;57.840;12.306;2022-08-16T20:57:37;100034.81;;;23.24;78.27
63405;BME280;49541;57.840;12.306;2022-08-16T21:02:37;100036.56;;;23.19;78.35
63405;BME280;49541;57.840;12.306;2022-08-16T21:07:38;100043.69;;;23.01;79.11
63405;BME280;49541;57.840;12.306;2022-08-16T21:12:45;100048.63;;;23.23;77.92
63405;BME280;49541;57.840;12.306;2022-08-16T21:17:46;100050.81;;;23.14;78.59
63405;BME280;49541;57.840;12.306;2022-08-16T21:23:02;100058.34;;;23.12;78.14
63405;BME280;49541;57.840;12.306;2022-08-16T21:28:03;100054.91;;;23.23;77.84
63405;BME280;49541;57.840;12.306;2022-08-16T21:33:07;100057.72;;;23.47;76.38
63405;BME280;49541;57.840;12.306;2022-08-16T21:38:08;100063.25;;;23.22;77.38
63405;BME280;49541;57.840;12.306;2022-08-16T21:43:10;100069.91;;;23.26;76.41
63405;BME280;49541;57.840;12.306;2022-08-16T21:48:10;100074.41;;;22.77;77.50
63405;BME280;49541;57.840;12.306;2022-08-16T21:53:15;100083.97;;;22.61;77.54
63405;BME280;49541;57.840;12.306;2022-08-16T21:58:16;100088.69;;;22.47;78.12
63405;BME280;49541;57.840;12.306;2022-08-16T22:03:16;100086.94;;;22.34;78.44
63405;BME280;49541;57.840;12.306;2022-08-16T22:08:17;100084.22;;;22.34;78.24
63405;BME280;49541;57.840;12.306;2022-08-16T22:13:19;100086.81;;;22.47;77.20
63405;BME280;49541;57.840;12.306;2022-08-16T22:18:20;100083.81;;;22.56;76.24
63405;BME280;49541;57.840;12.306;2022-08-16T22:23:21;100080.13;;;22.68;75.77
63405;BME280;49541;57.840;12.306;2022-08-16T22:28:22;100085.47;;;22.57;76.20
63405;BME280;49541;57.840;12.306;2022-08-16T22:33:23;100081.22;;;22.42;77.10
63405;BME280;49541;57.840;12.306;2022-08-16T22:38:24;100083.50;;;22.20;78.13
63405;BME280;49541;57.840;12.306;2022-08-16T22:43:26;100079.78;;;22.15;78.77
63405;BME280;49541;57.840;12.306;2022-08-16T22:48:26;100092.38;;;22.02;78.94
63405;BME280;49541;57.840;12.306;2022-08-16T22:53:26;100087.41;;;21.99;79.17
63405;BME280;49541;57.840;12.306;2022-08-16T22:58:26;100106.38;;;21.67;81.08
63405;BME280;49541;57.840;12.306;2022-08-16T23:03:26;100100.16;;;21.60;81.11
63405;BME280;49541;57.840;12.306;2022-08-16T23:08:28;100109.19;;;21.47;82.26
63405;BME280;49541;57.840;12.306;2022-08-16T23:13:28;100117.31;;;21.41;82.83
63405;BME280;49541;57.840;12.306;2022-08-16T23:18:29;100110.38;;;21.58;81.92
63405;BME280;49541;57.840;12.306;2022-08-16T23:23:30;100113.78;;;21.47;81.38
63405;BME280;49541;57.840;12.306;2022-08-16T23:28:30;100120.59;;;21.56;81.78
63405;BME280;49541;57.840;12.306;2022-08-16T23:33:31;100114.69;;;21.73;79.93
63405;BME280;49541;57.840;12.306;2022-08-16T23:38:32;100113.00;;;21.72;80.19
63405;BME280;49541;57.840;12.306;2022-08-16T23:43:33;100113.78;;;21.79;79.79
63405;BME280;49541;57.840;12.306;2022-08-16T23:48:35;100109.75;;;22.20;77.20
63405;BME280;49541;57.840;12.306;2022-08-16T23:53:36;100115.34;;;21.61;80.45
63405;BME280;49541;57.840;12.306;2022-08-16T23:58:40;100120.06;;;21.79;81.09
